Time;durP1;ratioP1;P1;durP2;ratioP2;P2;SDS_P1;SDS_P2;PMS_P1;PMS_P2;Temp;Humidity;BMP_temperature;BMP_pressure;BME280_temperature;BME280_humidity;BME280_pressure;Samples;Min_cycle;Max_cycle;Signal;HPM_P1;HPM_P2
2021/08/18 00:01:17;;;;;;;9.50;6.20;;;;;;;13.08;65.70;99952.37;2178693;80;21026;-87
2021/08/18 00:04:19;;;;;;;18.12;6.20;;;;;;;13.07;65.75;99952.06;2188940;79;21114;-86
2021/08/18 00:07:21;;;;;;;11.83;5.95;;;;;;;13.11;65.75;99965.31;2189288;80;21044;-88
2021/08/18 00:10:27;;;;;;;17.55;6.90;;;;;;;13.11;65.85;99965.31;2182446;80;21702;-90
2021/08/18 00:13:28;;;;;;;14.00;6.53;;;;;;;13.12;65.93;99968.31;2187345;80;21465;-90
2021/08/18 00:16:29;;;;;;;9.48;5.95;;;;;;;13.15;65.95;99969.75;2184703;79;20987;-88
2021/08/18 00:19:31;;;;;;;10.53;6.22;;;;;;;13.18;66.11;99974.22;2190531;80;21568;-88
2021/08/18 00:22:32;;;;;;;11.45;6.60;;;;;;;13.19;66.39;99976.38;2170150;80;20991;-88
2021/08/18 00:25:34;;;;;;;9.85;6.30;;;;;;;13.16;66.29;99972.75;2179626;80;21034;-87
2021/08/18 00:28:35;;;;;;;12.00;6.00;;;;;;;13.12;66.30;99973.64;2183463;80;21485;-89
2021/08/18 00:31:36;;;;;;;9.78;5.65;;;;;;;13.06;66.34;99966.88;2193602;80;20998;-88
2021/08/18 00:34:38;;;;;;;10.03;6.60;;;;;;;13.05;66.60;99969.23;2191404;80;20991;-87
2021/08/18 00:37:39;;;;;;;10.35;6.35;;;;;;;13.06;66.69;99969.55;2190958;80;20987;-87
2021/08/18 00:40:40;;;;;;;12.73;7.03;;;;;;;13.06;66.68;99967.70;2196101;80;21583;-87
2021/08/18 00:43:41;;;;;;;10.38;7.42;;;;;;;13.09;66.68;99970.50;2189927;79;21022;-86
2021/08/18 00:46:55;;;;;;;10.18;6.08;;;;;;;13.11;66.75;99969.81;2173807;80;20971;-86
2021/08/18 00:49:57;;;;;;;11.63;6.72;;;;;;;13.12;66.69;99972.30;2189277;80;21014;-89
2021/08/18 00:52:58;;;;;;;10.65;6.55;;;;;;;13.12;66.72;99966.12;2188191;80;21488;-89
2021/08/18 00:55:59;;;;;;;10.28;6.12;;;;;;;13.10;66.73;99972.99;2178850;80;21559;-87
2021/08/18 00:59:01;;;;;;;11.38;7.37;;;;;;;13.07;66.63;99973.37;2185754;80;20986;-87
2021/08/18 01:02:04;;;;;;;12.78;7.20;;;;;;;13.04;66.74;99970.26;2143862;82;20947;-89
2021/08/18 01:05:19;;;;;;;15.15;6.70;;;;;;;13.00;66.70;99973.27;2188494;79;21513;-87
2021/08/18 01:08:22;;;;;;;10.88;6.15;;;;;;;13.01;66.82;99982.11;2191639;80;21023;-88
2021/08/18 01:11:23;;;;;;;10.80;6.95;;;;;;;12.98;66.76;99975.31;2185542;79;21065;-88
2021/08/18 01:14:24;;;;;;;10.60;6.72;;;;;;;12.99;66.79;99971.63;2173454;80;21469;-86
2021/08/18 01:17:34;;;;;;;14.28;6.62;;;;;;;12.99;66.86;99973.47;2183346;80;21045;-89
2021/08/18 01:20:40;;;;;;;12.47;7.25;;;;;;;12.99;66.94;99970.30;2187069;80;21025;-89
2021/08/18 01:23:42;;;;;;;11.30;6.60;;;;;;;13.00;66.91;99963.13;2164876;80;21067;-86
2021/08/18 01:26:43;;;;;;;11.78;7.05;;;;;;;12.99;66.89;99966.30;2155055;80;21008;-86
2021/08/18 01:29:44;;;;;;;13.22;7.00;;;;;;;13.01;66.89;99967.46;2176115;80;21046;-89
2021/08/18 01:32:53;;;;;;;12.23;6.65;;;;;;;13.01;66.96;99966.12;2186872;80;20977;-89
2021/08/18 01:35:55;;;;;;;10.45;6.40;;;;;;;13.01;66.88;99964.28;2170593;80;21079;-89
2021/08/18 01:39:06;;;;;;;10.78;6.35;;;;;;;13.03;66.85;99969.92;2176474;80;21631;-87
2021/08/18 01:42:07;;;;;;;10.63;7.22;;;;;;;13.05;66.86;99964.73;2183269;80;21010;-87
2021/08/18 01:45:11;;;;;;;11.57;7.20;;;;;;;13.05;66.89;99967.39;2181516;80;21032;-86
2021/08/18 01:48:19;;;;;;;11.08;7.40;;;;;;;13.08;66.90;99971.52;2185229;80;21013;-87
2021/08/18 01:51:21;;;;;;;15.20;7.72;;;;;;;13.07;66.90;99964.56;2161924;80;21470;-90
2021/08/18 01:54:23;;;;;;;13.20;7.42;;;;;;;13.07;67.05;99963.22;2172960;80;21137;-88
2021/08/18 01:57:24;;;;;;;12.58;7.28;;;;;;;13.03;66.94;99965.41;2181280;80;21483;-88
2021/08/18 02:00:29;;;;;;;12.35;7.28;;;;;;;13.00;66.99;99965.27;2181396;80;20982;-87
2021/08/18 02:03:30;;;;;;;11.78;7.40;;;;;;;12.99;66.98;99966.30;2184390;80;21584;-88
2021/08/18 02:06:32;;;;;;;13.53;7.60;;;;;;;12.97;67.23;99961.66;2188190;80;21049;-89
2021/08/18 02:09:34;;;;;;;13.28;7.65;;;;;;;12.95;67.13;99960.19;2189840;80;20968;-89
2021/08/18 02:12:36;;;;;;;15.50;8.23;;;;;;;12.87;67.24;99969.13;2184384;80;21026;-89
2021/08/18 02:15:37;;;;;;;10.10;7.40;;;;;;;12.82;67.33;99972.84;2194242;80;21018;-90
2021/08/18 02:18:38;;;;;;;12.58;7.28;;;;;;;12.74;67.36;99967.10;2201495;79;21049;-88
2021/08/18 02:21:39;;;;;;;14.23;8.05;;;;;;;12.69;67.47;99970.81;2192376;80;21021;-88
2021/08/18 02:24:41;;;;;;;16.77;8.13;;;;;;;12.64;67.52;99973.70;2184313;80;21081;-88
2021/08/18 02:27:42;;;;;;;11.70;7.42;;;;;;;12.65;67.82;99976.70;2175698;80;21043;-90
2021/08/18 02:30:44;;;;;;;12.40;7.90;;;;;;;12.64;67.84;99971.05;2189012;80;21579;-87
2021/08/18 02:33:45;;;;;;;11.22;7.47;;;;;;;12.64;67.96;99967.91;2187144;80;21051;-89
2021/08/18 02:36:46;;;;;;;12.98;8.03;;;;;;;12.68;67.93;99968.36;2181996;80;20995;-87
2021/08/18 02:39:47;;;;;;;15.10;7.53;;;;;;;12.73;67.96;99975.29;2184969;80;20987;-89
2021/08/18 02:42:52;;;;;;;13.68;7.97;;;;;;;12.77;67.81;99967.23;2186124;80;21614;-89
2021/08/18 02:45:53;;;;;;;15.20;7.60;;;;;;;12.78;67.76;99961.74;2180529;80;20995;-86
2021/08/18 02:48:54;;;;;;;12.25;7.90;;;;;;;12.79;67.76;99972.70;2187888;80;21547;-87
2021/08/18 02:51:56;;;;;;;11.97;7.50;;;;;;;12.76;67.88;99968.27;2193824;80;21013;-88
2021/08/18 02:54:57;;;;;;;15.95;8.10;;;;;;;12.76;67.72;99974.41;2193047;80;21045;-88
2021/08/18 02:57:59;;;;;;;15.63;8.70;;;;;;;12.77;67.74;99976.56;2187998;80;21105;-88
2021/08/18 03:01:00;;;;;;;13.88;8.45;;;;;;;12.76;67.76;99982.39;2181606;80;21039;-86
2021/08/18 03:04:01;;;;;;;11.73;7.90;;;;;;;12.74;67.84;99978.27;2165639;79;21079;-89
2021/08/18 03:07:02;;;;;;;13.05;8.18;;;;;;;12.73;67.95;99977.95;2138334;81;20971;-88
2021/08/18 03:10:04;;;;;;;16.62;8.85;;;;;;;12.69;68.14;99978.80;2141840;81;21011;-88
2021/08/18 03:13:06;;;;;;;13.53;7.92;;;;;;;12.63;68.05;99970.73;2143594;82;21038;-88
2021/08/18 03:16:07;;;;;;;12.63;7.87;;;;;;;12.52;68.02;99971.50;2143365;81;20982;-88
2021/08/18 03:19:08;;;;;;;13.45;7.72;;;;;;;12.44;68.13;99979.56;2154473;81;21551;-86
2021/08/18 03:22:09;;;;;;;13.80;8.30;;;;;;;12.37;68.31;99975.17;2139517;81;21030;-89
2021/08/18 03:25:11;;;;;;;11.45;7.95;;;;;;;12.33;68.39;99976.02;2146147;82;20994;-88
2021/08/18 03:28:12;;;;;;;12.45;7.97;;;;;;;12.09;68.27;99948.66;2142827;81;21545;-86
2021/08/18 03:31:14;;;;;;;14.45;7.85;;;;;;;12.09;68.27;99948.66;2129453;81;21001;-88
2021/08/18 03:34:15;;;;;;;13.35;7.67;;;;;;;12.09;68.37;99964.62;2132640;82;21027;-88
2021/08/18 03:37:16;;;;;;;12.47;8.60;;;;;;;12.02;68.37;99971.68;2153067;81;21366;-88
2021/08/18 03:40:17;;;;;;;14.03;8.30;;;;;;;11.84;68.62;99967.95;2158385;82;22288;-87
2021/08/18 03:43:19;;;;;;;12.00;7.97;;;;;;;11.62;68.81;99972.27;2153859;81;21004;-86
2021/08/18 03:46:20;;;;;;;14.03;8.43;;;;;;;11.55;69.15;99970.01;2147688;81;21034;-88
2021/08/18 03:49:22;;;;;;;15.53;9.00;;;;;;;11.44;69.27;99971.74;2134172;82;21102;-89
2021/08/18 03:52:23;;;;;;;15.50;9.60;;;;;;;11.34;69.66;99965.31;2150432;82;21052;-87
2021/08/18 03:55:25;;;;;;;12.70;8.18;;;;;;;11.29;69.89;99977.46;2150733;81;21564;-88
2021/08/18 03:58:26;;;;;;;15.78;8.78;;;;;;;11.27;69.87;99972.85;2158538;81;21487;-86
2021/08/18 04:01:27;;;;;;;15.50;9.73;;;;;;;11.25;69.97;99972.19;2155647;82;21501;-89
2021/08/18 04:04:28;;;;;;;13.75;8.78;;;;;;;11.25;70.00;99977.50;2144497;82;20995;-89
2021/08/18 04:07:29;;;;;;;17.62;9.35;;;;;;;11.28;70.14;99977.15;2157320;81;21010;-87
2021/08/18 04:10:30;;;;;;;13.28;8.50;;;;;;;11.26;70.23;99976.48;2171766;81;21018;-88
2021/08/18 04:13:32;;;;;;;12.10;8.03;;;;;;;11.28;70.28;99979.30;2182424;80;21568;-89
2021/08/18 04:16:33;;;;;;;15.28;8.75;;;;;;;11.34;70.42;99977.77;2177041;80;21553;-88
2021/08/18 04:19:36;;;;;;;13.03;8.95;;;;;;;11.43;70.43;99990.00;2174268;80;21010;-87
2021/08/18 04:22:40;;;;;;;13.78;9.15;;;;;;;11.61;70.50;99988.41;2174724;80;21019;-87
2021/08/18 04:25:40;;;;;;;13.30;8.35;;;;;;;11.77;70.48;99992.28;2169492;81;20986;-87
2021/08/18 04:28:41;;;;;;;14.23;9.40;;;;;;;11.93;70.22;100000.65;2150052;81;20987;-88
2021/08/18 04:31:42;;;;;;;14.60;9.18;;;;;;;12.09;70.12;99995.71;2159784;81;20999;-87
2021/08/18 04:34:43;;;;;;;16.23;8.75;;;;;;;12.31;70.08;99999.34;2164555;81;21118;-87
2021/08/18 04:37:45;;;;;;;16.25;8.98;;;;;;;12.54;69.91;100000.09;2165913;80;20990;-87
2021/08/18 04:40:46;;;;;;;12.75;8.65;;;;;;;12.73;69.54;99997.92;2177397;81;21011;-90
2021/08/18 04:43:47;;;;;;;14.00;8.50;;;;;;;13.05;69.52;100004.68;2182463;81;21043;-88
2021/08/18 04:46:48;;;;;;;14.20;8.25;;;;;;;13.42;69.07;100008.23;2176010;81;21071;-87
2021/08/18 04:49:49;;;;;;;13.90;8.15;;;;;;;13.69;68.42;100009.34;2165090;81;21068;-90
2021/08/18 04:52:50;;;;;;;15.50;9.10;;;;;;;13.90;68.11;100008.52;2170129;81;21054;-88
2021/08/18 04:55:51;;;;;;;11.60;8.28;;;;;;;14.23;68.00;100009.32;2166406;80;21098;-87
2021/08/18 04:58:52;;;;;;;13.62;8.70;;;;;;;14.58;67.47;100011.55;2165869;81;21041;-86
2021/08/18 05:01:53;;;;;;;12.78;8.23;;;;;;;15.02;66.94;100017.05;2166386;80;20953;-87
2021/08/18 05:04:54;;;;;;;14.55;8.30;;;;;;;15.42;66.45;100018.55;2168350;81;20992;-88
2021/08/18 05:07:58;;;;;;;16.05;8.28;;;;;;;15.70;65.62;100018.45;2146716;81;21041;-89
2021/08/18 05:10:59;;;;;;;10.45;7.62;;;;;;;16.12;65.21;100022.62;2156382;80;21480;-87
2021/08/18 05:14:00;;;;;;;12.20;7.95;;;;;;;16.48;64.39;100012.01;2148229;81;21009;-85
2021/08/18 05:17:01;;;;;;;12.70;8.40;;;;;;;16.84;63.41;100022.80;2154410;81;21002;-88
2021/08/18 05:20:06;;;;;;;12.85;7.10;;;;;;;17.15;63.32;100031.98;2147486;81;21013;-89
2021/08/18 05:23:07;;;;;;;12.78;7.92;;;;;;;17.50;62.54;100032.97;2143228;82;21060;-87
2021/08/18 05:26:08;;;;;;;15.00;7.83;;;;;;;17.69;61.23;100022.65;2150272;81;21073;-89
2021/08/18 05:29:09;;;;;;;16.30;7.15;;;;;;;17.99;61.23;100031.45;2160549;81;21041;-90
2021/08/18 05:32:10;;;;;;;17.52;8.23;;;;;;;18.25;60.49;100037.98;2166213;81;21139;-86
2021/08/18 05:35:14;;;;;;;10.30;7.50;;;;;;;18.53;59.97;100037.53;2157156;81;21015;-90
2021/08/18 05:38:16;;;;;;;10.53;6.92;;;;;;;18.71;59.16;100038.08;2147339;81;21031;-88
2021/08/18 05:41:17;;;;;;;12.03;7.17;;;;;;;18.82;58.29;100035.22;2148922;81;21499;-87
2021/08/18 05:44:18;;;;;;;13.22;7.92;;;;;;;18.92;58.00;100042.25;2137407;81;21042;-88
2021/08/18 05:47:19;;;;;;;14.07;6.92;;;;;;;19.09;57.67;100040.29;2156299;81;20998;-89
2021/08/18 05:50:20;;;;;;;10.23;7.10;;;;;;;19.31;56.68;100042.00;2143174;80;20987;-88
2021/08/18 05:53:22;;;;;;;12.10;7.22;;;;;;;19.52;56.63;100042.88;2140710;81;21051;-89
2021/08/18 05:56:23;;;;;;;9.53;7.30;;;;;;;19.76;56.63;100046.50;2140038;81;21034;-89
2021/08/18 05:59:24;;;;;;;8.20;6.55;;;;;;;20.16;55.65;100033.81;2147899;81;21004;-90
2021/08/18 06:02:24;;;;;;;8.83;6.65;;;;;;;20.30;54.29;100037.08;2151659;81;21027;-88
2021/08/18 06:05:26;;;;;;;8.50;6.53;;;;;;;20.24;53.88;100032.09;2153805;80;21494;-88
2021/08/18 06:08:27;;;;;;;10.43;5.90;;;;;;;20.40;53.30;100041.91;2181273;80;21002;-88
2021/08/18 06:11:29;;;;;;;10.08;6.55;;;;;;;20.53;52.08;100033.11;2194976;80;20955;-88
2021/08/18 06:14:30;;;;;;;8.28;6.33;;;;;;;20.56;53.23;100023.20;2192700;80;21006;-88
2021/08/18 06:17:31;;;;;;;9.48;5.97;;;;;;;20.74;52.02;100014.69;2193536;79;21090;-86
2021/08/18 06:20:32;;;;;;;11.45;6.47;;;;;;;20.84;52.54;100019.50;2180584;80;21522;-91
2021/08/18 06:23:34;;;;;;;6.97;5.92;;;;;;;20.95;51.62;100014.09;2183017;80;21010;-89
2021/08/18 06:26:35;;;;;;;9.73;5.35;;;;;;;21.17;51.52;100015.59;2185787;80;21082;-88
2021/08/18 06:29:36;;;;;;;8.00;5.35;;;;;;;21.35;49.05;100020.02;2192913;80;21544;-86
2021/08/18 06:32:38;;;;;;;9.25;5.45;;;;;;;21.15;47.90;100023.66;2172302;79;21548;-90
2021/08/18 06:35:39;;;;;;;6.92;4.72;;;;;;;21.00;49.73;100017.40;2172676;80;21417;-88
2021/08/18 06:38:40;;;;;;;7.78;4.92;;;;;;;21.15;48.50;100010.98;2175466;80;20974;-89
2021/08/18 06:41:41;;;;;;;6.47;5.10;;;;;;;21.04;48.81;100016.70;2194001;80;21823;-89
2021/08/18 06:44:43;;;;;;;9.50;5.37;;;;;;;20.84;48.89;100011.41;2185139;80;21058;-88
2021/08/18 06:47:44;;;;;;;8.65;5.03;;;;;;;21.02;48.40;100012.59;2196383;80;21017;-87
2021/08/18 06:50:45;;;;;;;7.33;4.58;;;;;;;21.27;47.72;100005.02;2192578;80;21037;-90
2021/08/18 06:53:46;;;;;;;7.78;4.70;;;;;;;21.40;48.46;100006.66;2184873;80;21051;-87
2021/08/18 06:56:48;;;;;;;8.28;4.72;;;;;;;21.44;47.02;100011.04;2181791;79;21007;-90
2021/08/18 06:59:49;;;;;;;9.30;5.10;;;;;;;21.41;47.81;100012.88;2184819;80;21042;-87
2021/08/18 07:02:51;;;;;;;4.83;4.33;;;;;;;21.44;47.39;100015.09;2176055;80;20987;-90
2021/08/18 07:05:52;;;;;;;7.42;4.30;;;;;;;21.54;46.86;100011.75;2180474;80;21073;-89
2021/08/18 07:08:53;;;;;;;7.12;4.53;;;;;;;21.54;46.74;100015.29;2201615;80;20959;-87
2021/08/18 07:11:55;;;;;;;9.43;4.55;;;;;;;21.61;46.51;100027.28;2182975;80;21118;-88
2021/08/18 07:14:56;;;;;;;9.60;4.87;;;;;;;21.72;46.90;100023.70;2185962;80;21497;-86
2021/08/18 07:17:57;;;;;;;7.05;4.37;;;;;;;22.16;46.66;100027.98;2187944;80;21554;-88
2021/08/18 07:20:58;;;;;;;10.43;4.58;;;;;;;22.43;46.26;100031.41;2178352;80;21102;-87
2021/08/18 07:23:59;;;;;;;9.35;5.00;;;;;;;22.51;45.42;100023.69;2176648;80;21081;-87
2021/08/18 07:27:03;;;;;;;8.35;4.55;;;;;;;22.57;44.63;100028.64;2192485;80;21647;-88
2021/08/18 07:30:05;;;;;;;6.45;5.05;;;;;;;22.66;45.33;100027.14;2192416;80;21583;-89
2021/08/18 07:33:06;;;;;;;7.22;5.12;;;;;;;22.58;44.19;100026.20;2186626;80;21548;-88
2021/08/18 07:36:07;;;;;;;8.25;5.72;;;;;;;22.46;43.96;100030.91;2189629;80;21001;-87
2021/08/18 07:39:08;;;;;;;8.68;5.42;;;;;;;22.40;44.38;100027.84;2187128;80;21025;-89
2021/08/18 07:42:11;;;;;;;6.53;4.55;;;;;;;22.49;44.46;100035.27;2185502;80;20998;-88
2021/08/18 07:45:13;;;;;;;7.03;4.83;;;;;;;22.50;44.43;100030.17;2179779;80;21022;-86
2021/08/18 07:48:14;;;;;;;7.92;4.90;;;;;;;22.48;44.02;100043.11;2179265;80;21022;-89
2021/08/18 07:51:15;;;;;;;12.28;5.22;;;;;;;22.29;43.69;100037.13;2187324;79;21055;-87
2021/08/18 07:54:16;;;;;;;5.65;4.45;;;;;;;22.32;44.75;100039.34;2186999;80;21053;-86
2021/08/18 07:57:17;;;;;;;8.25;4.90;;;;;;;22.78;44.72;100037.34;2182373;80;21034;-88
2021/08/18 08:00:18;;;;;;;6.65;4.60;;;;;;;23.24;44.03;100041.20;2186471;80;21062;-88
2021/08/18 08:03:20;;;;;;;6.85;4.65;;;;;;;22.80;42.58;100039.78;2171147;80;21018;-89
2021/08/18 08:06:21;;;;;;;5.33;4.05;;;;;;;22.38;43.25;100035.67;2156039;80;21021;-89
2021/08/18 08:09:22;;;;;;;6.55;4.50;;;;;;;22.18;43.21;100029.92;2144520;81;21489;-91
2021/08/18 08:12:23;;;;;;;8.25;4.40;;;;;;;22.12;43.46;100046.55;2140255;81;21015;-89
2021/08/18 08:15:24;;;;;;;6.92;4.78;;;;;;;22.11;42.60;100046.81;2137915;81;21015;-87
2021/08/18 08:18:26;;;;;;;7.40;4.08;;;;;;;21.65;43.31;100045.47;2147108;82;21029;-88
2021/08/18 08:21:27;;;;;;;7.70;4.20;;;;;;;21.39;43.93;100046.83;2144542;82;21066;-89
2021/08/18 08:24:28;;;;;;;7.17;4.25;;;;;;;21.08;43.87;100051.28;2143811;81;20959;-86
2021/08/18 08:27:30;;;;;;;8.23;3.67;;;;;;;20.89;44.44;100056.84;2144064;81;21552;-89
2021/08/18 08:30:31;;;;;;;7.42;3.98;;;;;;;21.42;44.78;100041.48;2143643;81;21515;-88
2021/08/18 08:33:32;;;;;;;6.00;3.90;;;;;;;21.74;44.88;100048.59;2141283;81;21037;-89
2021/08/18 08:36:33;;;;;;;6.58;3.90;;;;;;;22.09;43.67;100042.17;2147165;81;21027;-89
2021/08/18 08:39:34;;;;;;;6.58;3.75;;;;;;;22.18;43.22;100046.14;2143630;82;20988;-87
2021/08/18 08:42:39;;;;;;;4.75;3.55;;;;;;;22.56;42.91;100041.34;2144039;82;20996;-89
2021/08/18 08:45:42;;;;;;;6.22;3.50;;;;;;;22.67;42.98;100038.27;2143216;82;21069;-89
2021/08/18 08:48:43;;;;;;;12.23;3.90;;;;;;;22.56;43.21;100047.29;2141053;81;20978;-89
2021/08/18 08:51:50;;;;;;;5.58;4.10;;;;;;;22.54;43.36;100038.06;2150096;81;21452;-89
2021/08/18 08:54:51;;;;;;;5.22;3.45;;;;;;;22.64;43.01;100041.47;2143445;82;21464;-88
2021/08/18 08:57:56;;;;;;;8.45;3.60;;;;;;;22.55;42.96;100038.37;2148090;81;21057;-89
2021/08/18 09:00:57;;;;;;;5.97;3.42;;;;;;;22.82;42.73;100035.76;2149803;82;20970;-87
2021/08/18 09:03:58;;;;;;;7.40;3.22;;;;;;;23.22;42.54;100027.91;2156049;80;20982;-89
2021/08/18 09:07:23;;;;;;;3.55;3.20;;;;;;;23.31;42.44;100021.52;2181076;80;21014;-87
2021/08/18 09:10:26;;;;;;;4.05;3.27;;;;;;;23.09;41.72;100026.95;2154305;80;20992;-89
2021/08/18 09:13:42;;;;;;;4.33;3.27;;;;;;;22.52;42.03;100033.42;2136243;82;21056;-89
2021/08/18 09:16:43;;;;;;;5.25;3.08;;;;;;;22.22;41.95;100031.09;2156834;80;21054;-89
2021/08/18 09:19:44;;;;;;;7.47;3.77;;;;;;;21.85;42.10;100023.92;2146907;80;21473;-88
2021/08/18 09:22:54;;;;;;;6.78;3.00;;;;;;;21.70;42.48;100023.13;2168162;80;21003;-88
2021/08/18 09:25:55;;;;;;;3.05;2.72;;;;;;;21.61;42.73;100025.39;2172299;80;21030;-90
2021/08/18 09:28:57;;;;;;;5.12;2.90;;;;;;;21.26;42.74;100024.97;2147456;82;21460;-88
2021/08/18 09:32:23;;;;;;;4.95;3.50;;;;;;;20.89;42.94;100025.83;2162645;80;21513;-90
2021/08/18 09:35:26;;;;;;;4.12;2.92;;;;;;;21.01;43.98;100027.97;2146613;82;21044;-88
2021/08/18 09:38:28;;;;;;;3.17;2.77;;;;;;;21.35;43.05;100023.25;2149905;82;21044;-87
2021/08/18 09:41:30;;;;;;;6.42;2.50;;;;;;;21.24;42.93;100028.97;2154152;82;21468;-89
2021/08/18 09:44:31;;;;;;;5.25;2.40;;;;;;;21.04;43.66;100025.33;2171009;80;20982;-90
2021/08/18 09:47:32;;;;;;;4.47;2.75;;;;;;;21.04;43.40;100024.79;2155490;80;21519;-88
2021/08/18 09:50:56;;;;;;;4.22;2.58;;;;;;;20.81;43.41;100027.00;2165322;80;21611;-89
2021/08/18 09:53:58;;;;;;;5.83;2.72;;;;;;;20.59;43.67;100015.99;2144231;81;21465;-88
2021/08/18 09:57:08;;;;;;;3.17;2.42;;;;;;;21.13;43.94;100014.98;2138162;80;20975;-88
2021/08/18 10:00:11;;;;;;;6.75;2.70;;;;;;;21.51;43.63;100010.88;2142312;82;21033;-91
2021/08/18 10:03:13;;;;;;;4.30;2.35;;;;;;;21.66;43.15;100012.53;2165242;80;21057;-87
2021/08/18 10:06:15;;;;;;;3.80;2.20;;;;;;;21.93;42.46;100000.06;2137773;81;21558;-88
2021/08/18 10:09:17;;;;;;;3.47;2.17;;;;;;;22.26;41.41;99990.33;2124715;82;21091;-86
2021/08/18 10:12:18;;;;;;;8.15;2.27;;;;;;;22.38;42.29;99992.94;2129591;82;21021;-87
2021/08/18 10:15:19;;;;;;;4.72;2.40;;;;;;;22.18;41.19;99988.58;2128004;82;20992;-89
2021/08/18 10:18:38;;;;;;;2.47;2.00;;;;;;;22.59;41.74;99992.72;2151676;82;21077;-89
2021/08/18 10:21:39;;;;;;;6.87;2.10;;;;;;;23.02;41.05;99995.20;2112513;82;21038;-89
2021/08/18 10:24:40;;;;;;;4.78;2.20;;;;;;;23.26;41.32;99993.87;2127935;83;21012;-88
2021/08/18 10:27:48;;;;;;;4.40;2.10;;;;;;;22.95;40.71;99994.55;2141545;82;21008;-89
2021/08/18 10:30:54;;;;;;;3.87;2.00;;;;;;;22.59;40.92;100000.83;2108554;83;20970;-90
2021/08/18 10:33:59;;;;;;;2.42;2.17;;;;;;;22.30;40.75;99994.70;2110886;83;20955;-90
2021/08/18 10:37:16;;;;;;;2.25;2.00;;;;;;;22.01;40.52;99992.59;2153307;82;21036;-88
2021/08/18 10:40:17;;;;;;;2.17;2.00;;;;;;;21.57;41.33;99994.55;2164342;82;21038;-89
2021/08/18 10:43:59;;;;;;;3.95;2.10;;;;;;;21.45;41.66;99988.38;2156624;82;21520;-88
2021/08/18 10:47:23;;;;;;;4.37;2.08;;;;;;;21.25;41.72;99994.98;2165579;82;21304;-89
2021/08/18 10:50:40;;;;;;;2.98;1.90;;;;;;;20.99;42.37;99996.36;2144143;82;21097;-89
2021/08/18 10:53:42;;;;;;;3.98;2.10;;;;;;;20.95;42.35;99988.47;2139206;82;21038;-88
2021/08/18 10:56:47;;;;;;;4.42;2.58;;;;;;;20.89;42.53;99986.73;2146324;82;21016;-88
2021/08/18 10:59:49;;;;;;;2.33;2.00;;;;;;;20.73;42.76;99986.10;2144209;82;21575;-88
2021/08/18 11:03:05;;;;;;;3.70;2.10;;;;;;;20.79;43.47;99998.09;2140951;82;21112;-90
2021/08/18 11:06:08;;;;;;;3.00;2.08;;;;;;;20.85;43.34;99992.28;2116852;81;21613;-87
2021/08/18 11:09:09;;;;;;;2.10;1.65;;;;;;;20.82;43.87;99994.11;2163378;81;21048;-89
2021/08/18 11:12:42;;;;;;;4.08;1.80;;;;;;;20.85;43.30;99995.52;2159602;80;21046;-87
2021/08/18 11:15:50;;;;;;;1.87;1.55;;;;;;;20.73;43.28;99992.84;2161402;80;21034;-89
2021/08/18 11:19:08;;;;;;;2.85;2.05;;;;;;;20.57;43.22;99994.37;2167342;81;21497;-88
2021/08/18 11:22:13;;;;;;;4.00;1.95;;;;;;;20.47;43.24;100002.18;2181593;79;21024;-87
2021/08/18 11:25:17;;;;;;;3.67;1.67;;;;;;;20.43;43.50;99988.36;2166635;80;21041;-91
2021/08/18 11:28:24;;;;;;;3.50;1.65;;;;;;;20.51;43.56;99988.02;2154168;80;21540;-88
2021/08/18 11:31:36;;;;;;;1.62;1.52;;;;;;;20.46;43.38;99983.03;2191287;80;21057;-88
2021/08/18 11:34:40;;;;;;;2.77;1.55;;;;;;;20.31;44.11;99979.47;2185587;79;21555;-88
2021/08/18 11:37:41;;;;;;;2.15;1.50;;;;;;;20.38;43.60;99972.08;2193887;80;21581;-87
2021/08/18 11:40:42;;;;;;;1.85;1.37;;;;;;;20.37;43.94;99972.61;2172997;81;21042;-86
2021/08/18 11:43:44;;;;;;;1.52;1.42;;;;;;;20.60;44.16;99969.10;2174028;81;21011;-91
2021/08/18 11:46:45;;;;;;;2.58;1.32;;;;;;;21.12;43.42;99980.45;2179561;80;21014;-86
2021/08/18 11:49:49;;;;;;;1.20;1.10;;;;;;;21.26;43.03;99971.01;2172338;81;20995;-89
2021/08/18 11:53:01;;;;;;;1.82;1.27;;;;;;;21.28;43.18;99970.75;2151878;81;21027;-87
2021/08/18 11:56:06;;;;;;;4.33;1.37;;;;;;;21.42;42.88;99973.48;2158481;80;22677;-86
2021/08/18 11:59:07;;;;;;;1.52;1.42;;;;;;;21.39;42.96;99973.97;2159279;81;21002;-87
2021/08/18 12:02:10;;;;;;;1.50;1.40;;;;;;;21.63;43.33;99969.83;2169137;81;21044;-88
2021/08/18 12:05:12;;;;;;;1.82;1.12;;;;;;;21.62;42.68;99968.16;2183915;80;20949;-87
2021/08/18 12:08:16;;;;;;;1.20;1.10;;;;;;;21.39;42.65;99973.15;2182152;80;20963;-87
2021/08/18 12:11:17;;;;;;;1.92;1.27;;;;;;;21.33;43.09;99972.73;2177902;80;21532;-87
2021/08/18 12:14:19;;;;;;;1.60;1.05;;;;;;;21.28;43.12;99974.27;2171979;80;21018;-88
2021/08/18 12:17:20;;;;;;;4.40;1.50;;;;;;;21.52;43.29;99964.77;2152875;81;21042;-88
2021/08/18 12:20:33;;;;;;;1.40;1.30;;;;;;;21.57;42.58;99965.37;2178529;80;21459;-89
2021/08/18 12:23:43;;;;;;;4.28;1.60;;;;;;;21.66;42.45;99964.75;2181005;80;21042;-89
2021/08/18 12:26:47;;;;;;;5.10;1.50;;;;;;;21.90;42.52;99957.30;2185469;80;21034;-88
2021/08/18 12:30:06;;;;;;;3.10;1.55;;;;;;;22.14;43.33;99958.51;2148305;81;21611;-87
2021/08/18 12:33:18;;;;;;;2.70;1.80;;;;;;;22.40;42.83;99954.86;2166249;80;20997;-88
2021/08/18 12:36:19;;;;;;;2.98;1.80;;;;;;;22.31;42.04;99957.17;2187491;80;21007;-89
2021/08/18 12:39:31;;;;;;;1.92;1.60;;;;;;;22.04;41.73;99948.34;2165130;80;20950;-89
2021/08/18 12:42:43;;;;;;;1.70;1.60;;;;;;;21.89;42.18;99957.56;2157136;80;21018;-90
2021/08/18 12:45:48;;;;;;;4.22;1.57;;;;;;;21.93;42.53;99950.09;2165711;80;20998;-88
2021/08/18 12:48:49;;;;;;;10.60;2.17;;;;;;;22.05;42.02;99947.30;2185569;80;21034;-88
2021/08/18 12:51:50;;;;;;;3.15;1.40;;;;;;;21.93;41.73;99946.55;2162977;80;21136;-88
2021/08/18 12:54:54;;;;;;;2.25;1.50;;;;;;;21.82;41.75;99941.53;2157525;81;21007;-87
2021/08/18 12:57:55;;;;;;;2.85;1.40;;;;;;;21.71;41.96;99951.34;2169344;80;21068;-89
2021/08/18 13:00:57;;;;;;;1.98;1.37;;;;;;;21.51;41.98;99954.20;2173428;80;21500;-88
2021/08/18 13:03:58;;;;;;;4.42;1.57;;;;;;;21.39;42.61;99944.81;2174296;80;21011;-90
2021/08/18 13:06:59;;;;;;;2.25;1.42;;;;;;;21.42;42.66;99941.09;2176837;80;21063;-88
2021/08/18 13:10:01;;;;;;;1.40;1.30;;;;;;;21.57;42.65;99943.77;2161186;81;21522;-91
2021/08/18 13:13:03;;;;;;;2.08;1.55;;;;;;;21.46;42.61;99940.91;2177392;81;21038;-89
2021/08/18 13:16:05;;;;;;;1.50;1.40;;;;;;;21.46;42.86;99926.07;2179725;81;20980;-89
2021/08/18 13:19:06;;;;;;;1.37;1.27;;;;;;;21.68;42.21;99915.89;2160247;81;21003;-87
2021/08/18 13:22:08;;;;;;;5.70;1.65;;;;;;;21.69;42.34;99925.64;2167743;81;21023;-87
2021/08/18 13:25:11;;;;;;;3.40;1.52;;;;;;;21.83;42.27;99922.91;2173301;81;21103;-88
2021/08/18 13:28:12;;;;;;;1.67;1.10;;;;;;;21.91;42.14;99920.34;2159740;81;21495;-90
2021/08/18 13:31:16;;;;;;;3.20;1.35;;;;;;;21.96;42.22;99920.39;2165928;81;20967;-88
2021/08/18 13:34:19;;;;;;;2.22;1.60;;;;;;;22.09;42.18;99913.30;2167363;81;21000;-87
2021/08/18 13:37:20;;;;;;;3.80;1.37;;;;;;;22.04;41.92;99919.98;2167682;80;20998;-89
2021/08/18 13:40:21;;;;;;;1.60;1.40;;;;;;;22.03;41.50;99922.94;2185374;80;21538;-89
2021/08/18 13:43:23;;;;;;;2.45;1.40;;;;;;;22.00;41.53;99910.75;2189763;80;20982;-89
2021/08/18 13:46:24;;;;;;;2.60;1.40;;;;;;;22.01;41.42;99908.86;2196502;80;21098;-89
2021/08/18 13:49:26;;;;;;;2.60;1.65;;;;;;;22.20;41.63;99899.98;2165994;80;21010;-88
2021/08/18 13:52:27;;;;;;;2.40;1.60;;;;;;;22.23;41.47;99899.48;2158208;81;21496;-90
2021/08/18 13:55:28;;;;;;;2.65;1.70;;;;;;;22.23;41.65;99897.59;2161493;80;21018;-89
2021/08/18 13:58:30;;;;;;;4.65;1.52;;;;;;;22.37;41.47;99896.17;2179085;81;20968;-88
2021/08/18 14:01:32;;;;;;;4.12;1.82;;;;;;;22.43;41.75;99899.76;2164577;81;21002;-89
2021/08/18 14:04:33;;;;;;;4.95;1.80;;;;;;;22.33;41.35;99899.10;2174454;81;20982;-89
2021/08/18 14:07:35;;;;;;;2.83;1.85;;;;;;;22.08;41.22;99900.06;2177992;80;21076;-88
2021/08/18 14:10:40;;;;;;;4.42;1.50;;;;;;;22.03;41.81;99905.38;2175559;80;21060;-89
2021/08/18 14:13:41;;;;;;;2.15;1.72;;;;;;;21.94;41.79;99899.58;2170255;81;21610;-91